Imbituva, Brazil
Current Conditions -  °F | °C
As of 7:00 PM on Saturday 22 Nov 2014 (Local Time) from SBBI Reporting Station
Few Clouds Few Clouds  
Wind Chill: 75°   Ceiling: Unl
Heat Index: 75°   Visibility: 6mi
Dew Point: 61°   Wind: 7mph
Humidity: 61%   Direction: 290°WNW
Pressure: 29.94"   Gusts: NA
Location:  25.23°S, 50.6°W
Report Text: SBBI 222100Z 29006KT 9999 FEW027 24/16 Q1014
Loading
Personal Weather Stations






























Interactive Weather Map New forecast layout! Learn more

10-Day Weather Forecast

Advertisements
Track Severe Weather on mobile